ADDS METAR Data INFO
IDs: Format: Raw Decoded Include TAF

Data at: 1845 UTC 16 Dec 2017

KBYY 161835Z AUTO 09014G18KT 10SM BKN035 OVC042 16/07 A3010 RMK AO2 T01620076
KBYY 161815Z AUTO 09012G18KT 10SM BKN042 OVC048 16/07 A3011 RMK AO2 T01590072
KBYY 161755Z AUTO 08014KT 10SM BKN050 BKN060 BKN080 16/07 A3013 RMK AO2 T01580073
KBYY 161735Z AUTO 08015G20KT 10SM SCT060 SCT090 16/07 A3014 RMK AO2 T01590074
KBYY 161715Z AUTO 07015G20KT 10SM BKN060 BKN070 BKN080 15/07 A3015 RMK AO2 T01510071
KBYY 161655Z AUTO 08011G16KT 10SM BKN060 BKN070 BKN080 15/06 A3017 RMK AO2 T01450067
KBYY 161635Z AUTO 07009KT 10SM SCT050 SCT060 OVC080 14/06 A3018 RMK AO2 T01400061
KBYY 161615Z AUTO 07011G14KT 10SM SCT050 BKN060 OVC080 13/05 A3018 RMK AO2 T01330054
KBYY 161555Z AUTO 05010KT 10SM OVC060 12/05 A3019 RMK AO2 T01260045
KBYY 161535Z AUTO 07008KT 10SM OVC060 12/04 A3020 RMK AO2 T01170041
KBYY 161515Z AUTO 06005KT 10SM OVC060 11/03 A3021 RMK AO2 T01140042
KBYY 161455Z AUTO 06004KT 10SM OVC060 11/04 A3021 RMK AO2 T01130043
KBYY 161435Z AUTO 07003KT 10SM OVC060 11/04 A3021 RMK AO2 T01090043
KBYY 161415Z AUTO 06004KT 10SM OVC060 10/04 A3021 RMK AO2 T01060045
KBYY 161355Z AUTO 07005KT 10SM OVC070 10/05 A3019 RMK AO2 T01040047
KBYY 161335Z AUTO 07005KT 10SM OVC070 10/05 A3020 RMK AO2 T01020048
KBYY 161315Z AUTO 08005KT 10SM OVC070 10/05 A3020 RMK AO2 T00990050
KBYY 161255Z AUTO 08004KT 10SM OVC070 10/05 A3020 RMK AO2 T00960054
KBYY 161235Z AUTO 08003KT 10SM OVC070 09/05 A3020 RMK AO2 T00950056
KBYY 161215Z AUTO 06003KT 10SM OVC070 09/05 A3020 RMK AO2 T00940057
KBYY 161155Z AUTO 00000KT 10SM OVC080 09/05 A3021 RMK AO2 T00920059
KBYY 161135Z AUTO 00000KT 10SM OVC080 08/06 A3020 RMK AO2 T00900062
KBYY 161115Z AUTO 00000KT 10SM OVC080 08/06 A3021 RMK AO2 T00900062
KBYY 161055Z AUTO 00000KT 10SM OVC080 08/06 A3021 RMK AO2 T00900059
KBYY 161035Z AUTO 00000KT 10SM OVC080 08/05 A3021 RMK AO2 T00900055
KBYY 161015Z AUTO 00000KT 10SM OVC080 08/05 A3021 RMK AO2 T00890057
KBYY 160955Z AUTO 00000KT 10SM OVC090 08/06 A3022 RMK AO2 T00880059
KBYY 160935Z AUTO 00000KT 10SM SCT070 OVC090 08/06 A3023 RMK AO2 T00860059
KBYY 160915Z AUTO 00000KT 10SM SCT070 OVC090 08/05 A3023 RMK AO2 T00840061
KBYY 160855Z AUTO 00000KT 10SM BKN070 OVC090 08/06 A3023 RMK AO2 T00830064
KBYY 160835Z AUTO 00000KT 10SM SCT070 BKN090 OVC120 08/06 A3024 RMK AO2 T00820064
KBYY 160815Z AUTO 00000KT 10SM BKN070 OVC090 08/06 A3024 RMK AO2 T00810059
KBYY 160755Z AUTO 00000KT 10SM BKN070 OVC090 07/06 A3025 RMK AO2 T00760062
KBYY 160735Z AUTO 00000KT 10SM OVC090 07/06 A3025 RMK AO2 T00730059
KBYY 160715Z AUTO 00000KT 10SM OVC090 07/05 A3026 RMK AO2 T00660054
KBYY 160655Z AUTO 00000KT 10SM BKN100 06/05 A3027 RMK AO2 T00630048
KBYY 160635Z AUTO 00000KT 10SM CLR 06/05 A3027 RMK AO2 T00640048
KBYY 160615Z AUTO 00000KT 10SM CLR 06/05 A3027 RMK AO2 T00660047
KBYY 160555Z AUTO 00000KT 10SM CLR 06/05 A3027 RMK AO2 T00670049
KBYY 160535Z AUTO 00000KT 10SM CLR 07/05 A3028 RMK AO2 T00730049
KBYY 160515Z AUTO 00000KT 10SM CLR 08/05 A3028 RMK AO2 T00820046
KBYY 160455Z AUTO 00000KT 10SM CLR 08/05 A3029 RMK AO2 T00810051
KBYY 160435Z AUTO 00000KT 10SM CLR 07/05 A3029 RMK AO2 T00810054
KBYY 160415Z AUTO 00000KT 10SM CLR 08/05 A3029 RMK AO2 T00830057
KBYY 160355Z AUTO 00000KT 10SM CLR 08/05 A3029 RMK AO2 T00920048
KBYY 160335Z AUTO 00000KT 10SM CLR 09/05 A3030 RMK AO2 T00940048
KBYY 160315Z AUTO 00000KT 10SM CLR 09/05 A3029 RMK AO2 T00960048
KBYY 160255Z AUTO 00000KT 10SM CLR 10/03 A3029 RMK AO2 T00990036
KBYY 160235Z AUTO 00000KT 10SM CLR 10/03 A3028 RMK AO2 T00980038
KBYY 160215Z AUTO 00000KT 10SM CLR 10/03 A3027 RMK AO2 T00970042
KBYY 160155Z AUTO 00000KT 10SM CLR 08/05 A3027 RMK AO2 T00920054
KBYY 160135Z AUTO 00000KT 10SM CLR 09/05 A3026 RMK AO2 T00980047
KBYY 160115Z AUTO 00000KT 10SM CLR 10/05 A3027 RMK AO2 T01020044
KBYY 160055Z AUTO 00000KT 10SM CLR 10/04 A3027 RMK AO2 T01030041
KBYY 160035Z AUTO 00000KT 10SM CLR 10/03 A3027 RMK AO2 T01080034
KBYY 160015Z AUTO 00000KT 10SM CLR 11/02 A3027 RMK AO2 T01100027
KBYY 152355Z AUTO 00000KT 10SM CLR 10/02 A3026 RMK AO2 T01080030
KBYY 152335Z AUTO 00000KT 10SM SCT120 11/02 A3026 RMK AO2 T01120026
KBYY 152315Z AUTO 00000KT 10SM SCT120 11/02 A3025 RMK AO2 T01180023
KBYY 152255Z AUTO 04003KT 10SM SCT120 12/02 A3024 RMK AO2 T01210022
KBYY 152235Z AUTO 04003KT 10SM SCT110 12/02 A3025 RMK AO2 T01220024
KBYY 152215Z AUTO 03005KT 10SM OVC110 12/02 A3024 RMK AO2 T01230021
KBYY 152155Z AUTO 05007KT 10SM BKN110 12/02 A3024 RMK AO2 T01250023
KBYY 152135Z AUTO 05006KT 10SM SCT120 12/02 A3025 RMK AO2 T01240019
KBYY 152115Z AUTO 04006KT 10SM CLR 12/02 A3026 RMK AO2 T01250019
KBYY 152055Z AUTO 03004KT 10SM CLR 12/02 A3026 RMK AO2 T01250020
KBYY 152035Z AUTO 02007KT 10SM CLR 12/02 A3024 RMK AO2 T01260021
KBYY 152015Z AUTO 03007KT 10SM CLR 12/02 A3025 RMK AO2 T01270023
KBYY 151955Z AUTO 03006KT 10SM CLR 12/02 A3025 RMK AO2 T01260026
KBYY 151935Z AUTO 03005KT 10SM CLR 12/02 A3026 RMK AO2 T01250026
KBYY 151915Z AUTO 03007KT 10SM CLR 12/02 A3026 RMK AO2 T01230025
KBYY 151855Z AUTO 03010G14KT 10SM CLR 12/02 A3027 RMK AO2 T01230026
KBYY 151835Z AUTO 02012KT 10SM CLR 12/02 A3028 RMK AO2 T01190028
KBYY 151815Z AUTO 02011KT 10SM SCT120 11/02 A3028 RMK AO2 T01160030
KBYY 151755Z AUTO 03008KT 10SM BKN120 11/02 A3030 RMK AO2 T01120032
KBYY 151735Z AUTO 02009KT 10SM -DZ BKN100 OVC110 11/03 A3031 RMK AO2 T01090035
KBYY 151715Z AUTO 02008KT 10SM OVC100 10/03 A3030 RMK AO2 T01040038
KBYY 151655Z AUTO 04008KT 10SM -RA SCT075 OVC100 10/04 A3029 RMK AO2 T01000040
KBYY 151635Z AUTO 02007KT 10SM -RA SCT075 SCT085 OVC100 10/03 A3029 RMK AO2 T01000034
KBYY 151615Z AUTO 01010KT 10SM BKN100 OVC120 10/03 A3029 RMK AO2 T00980035
KBYY 151555Z AUTO 02006KT 10SM OVC100 09/03 A3029 RMK AO2 T00960035
KBYY 151535Z AUTO 36011G15KT 10SM OVC110 09/03 A3026 RMK AO2 T00930037
KBYY 151515Z AUTO 36010KT 10SM OVC110 09/03 A3025 RMK AO2 T00900040
KBYY 151455Z AUTO 36007KT 10SM SCT080 BKN100 OVC120 08/04 A3024 RMK AO2 T00860043
KBYY 151435Z AUTO 36006KT 10SM -DZ BKN090 OVC120 08/04 A3024 RMK AO2 T00850045
KBYY 151415Z AUTO 36007KT 10SM -RA OVC100 08/04 A3024 RMK AO2 T00850045
KBYY 151355Z AUTO 35007KT 10SM -RA OVC100 08/04 A3023 RMK AO2 T00860044
KBYY 151335Z AUTO 35007KT 10SM -RA OVC090 08/03 A3022 RMK AO2 T00900040
KBYY 151315Z AUTO 35007KT 10SM -RA OVC100 09/03 A3021 RMK AO2 T00960032
KBYY 151255Z AUTO 35008KT 10SM -RA BKN100 OVC120 10/02 A3020 RMK AO2 T01000026
KBYY 151235Z AUTO 36011KT 10SM -RA OVC110 10/02 A3018 RMK AO2 T01010027
KBYY 151215Z AUTO 36012KT 10SM -RA SCT075 BKN090 OVC110 10/02 A3017 RMK AO2 T01080020
KBYY 151155Z AUTO 36014G19KT 10SM OVC090 11/01 A3016 RMK AO2 T01100019
KBYY 151135Z AUTO 36014G20KT 10SM OVC100 11/02 A3015 RMK AO2 T01110024
KBYY 151115Z AUTO 36013G17KT 10SM OVC100 11/02 A3015 RMK AO2 T01140025
KBYY 151055Z AUTO 36011G19KT 10SM OVC100 11/02 A3014 RMK AO2 T01160024
KBYY 151035Z AUTO 36009KT 10SM BKN100 OVC120 11/02 A3015 RMK AO2 T01190024
KBYY 151015Z AUTO 36011G18KT 10SM OVC100 12/02 A3014 RMK AO2 T01200026
KBYY 150955Z AUTO 01013KT 10SM OVC100 12/02 A3014 RMK AO2 T01210031
KBYY 150935Z AUTO 36009KT 10SM BKN110 12/03 A3014 RMK AO2 T01230037
KBYY 150915Z AUTO 01013KT 10SM BKN110 12/03 A3013 RMK AO2 T01250043
KBYY 150855Z AUTO 01011G15KT 10SM OVC110 12/05 A3012 RMK AO2 T01250052
KBYY 150835Z AUTO 36011G17KT 10SM OVC110 12/05 A3012 RMK AO2 T01270061
KBYY 150815Z AUTO 36009G15KT 10SM OVC110 12/06 A3012 RMK AO2 T01280067
KBYY 150755Z AUTO 01011G14KT 10SM OVC120 12/06 A3011 RMK AO2 T01290070
KBYY 150735Z AUTO 36009KT 10SM SCT120 12/07 A3011 RMK AO2 T01300071
KBYY 150715Z AUTO 35008KT 10SM CLR 13/07 A3011 RMK AO2 T01330070
KBYY 150655Z AUTO 01006KT 10SM SCT050 13/07 A3010 RMK AO2 T01340070